createdAt,value
2022-09-06T00:03:32.414Z,86.29
2022-09-06T00:05:59.322Z,86.71
2022-09-06T00:08:26.483Z,87.05
2022-09-06T00:11:01.307Z,87.34
2022-09-06T00:13:28.874Z,87.75
2022-09-06T00:15:55.981Z,87.96
2022-09-06T00:18:23.745Z,87.65
2022-09-06T00:20:50.772Z,87.38
2022-09-06T00:23:17.751Z,87.25
2022-09-06T00:25:44.664Z,86.76
2022-09-06T00:28:11.531Z,87.61
2022-09-06T00:30:38.572Z,87.70
2022-09-06T00:33:05.584Z,87.74
2022-09-06T00:35:32.601Z,87.83
2022-09-06T00:38:01.203Z,87.77
2022-09-06T00:40:30.932Z,87.91
2022-09-06T00:42:58.451Z,87.57
2022-09-06T00:45:28.003Z,87.56
2022-09-06T00:47:55.691Z,86.99
2022-09-06T00:50:22.993Z,86.66
2022-09-06T00:52:52.911Z,86.85
2022-09-06T00:55:21.274Z,86.82
2022-09-06T00:57:52.844Z,87.28
2022-09-06T01:00:21.119Z,87.38
2022-09-06T01:02:49.163Z,87.71
2022-09-06T01:05:17.224Z,88.10
2022-09-06T01:07:44.235Z,88.02
2022-09-06T01:10:44.170Z,88.21
2022-09-06T01:13:42.207Z,88.42
2022-09-06T01:16:33.296Z,89.00
2022-09-06T01:19:21.978Z,89.08
2022-09-06T01:22:06.949Z,88.45
2022-09-06T01:24:45.728Z,87.98
2022-09-06T01:27:46.949Z,87.94
2022-09-06T01:30:18.719Z,87.96
2022-09-06T01:32:59.068Z,87.83
2022-09-06T01:35:48.396Z,87.89
2022-09-06T01:38:17.497Z,87.41
2022-09-06T01:40:44.677Z,86.57
2022-09-06T01:43:17.967Z,86.85
2022-09-06T01:45:57.709Z,87.28
2022-09-06T01:48:40.403Z,87.11
2022-09-06T01:51:16.365Z,87.26
2022-09-06T01:53:55.243Z,87.33
2022-09-06T01:56:43.843Z,87.84
2022-09-06T01:59:22.633Z,87.93
2022-09-06T02:02:09.692Z,88.17
2022-09-06T02:04:42.703Z,89.20
2022-09-06T02:07:20.485Z,89.31
2022-09-06T02:10:00.346Z,89.98
2022-09-06T02:12:30.417Z,89.50
2022-09-06T02:15:02.625Z,90.00
2022-09-06T02:17:38.640Z,89.81
2022-09-06T02:20:13.304Z,89.58
2022-09-06T02:22:44.530Z,89.38
2022-09-06T02:25:19.711Z,89.43
2022-09-06T02:27:46.860Z,88.97
2022-09-06T02:30:14.292Z,88.46
2022-09-06T02:32:48.492Z,88.85
2022-09-06T02:35:17.078Z,88.79
2022-09-06T02:37:45.010Z,88.48
2022-09-06T02:40:12.766Z,88.34
2022-09-06T02:42:40.188Z,88.49
2022-09-06T02:45:08.062Z,88.45
2022-09-06T02:47:35.184Z,88.08
2022-09-06T02:50:02.433Z,87.93
2022-09-06T02:52:29.505Z,88.20
2022-09-06T02:54:56.769Z,88.61
2022-09-06T02:57:23.864Z,88.21
2022-09-06T02:59:51.581Z,88.04
2022-09-06T03:02:19.328Z,88.96
2022-09-06T03:04:46.441Z,89.02
2022-09-06T03:07:13.621Z,88.97
2022-09-06T03:09:41.793Z,88.78
2022-09-06T03:12:08.942Z,89.08
2022-09-06T03:14:36.293Z,89.25
2022-09-06T03:17:04.567Z,90.18
2022-09-06T03:19:31.623Z,90.13
2022-09-06T03:21:58.631Z,89.69
2022-09-06T03:24:25.653Z,89.90
2022-09-06T03:26:52.744Z,90.08
2022-09-06T03:29:19.731Z,89.57
2022-09-06T03:31:46.732Z,89.91
2022-09-06T03:34:13.701Z,89.93
2022-09-06T03:36:40.753Z,89.84
2022-09-06T03:39:07.823Z,89.75
2022-09-06T03:41:34.849Z,90.23
2022-09-06T03:44:02.364Z,90.38
2022-09-06T03:46:30.962Z,90.24
2022-09-06T03:48:59.393Z,90.26
2022-09-06T03:51:29.443Z,90.46
2022-09-06T03:53:56.541Z,90.59
2022-09-06T03:56:23.593Z,90.49
2022-09-06T03:58:50.571Z,90.49
2022-09-06T04:01:21.103Z,90.67
2022-09-06T04:03:48.225Z,91.09
2022-09-06T04:06:15.193Z,91.02
2022-09-06T04:08:42.263Z,90.55
2022-09-06T04:11:09.436Z,90.85
2022-09-06T04:13:37.212Z,91.05
2022-09-06T04:16:05.623Z,91.02
2022-09-06T04:18:32.582Z,91.03
2022-09-06T04:20:59.825Z,91.27
2022-09-06T04:23:28.683Z,90.93
2022-09-06T04:25:57.895Z,91.03
2022-09-06T04:28:26.893Z,91.00
2022-09-06T04:31:01.959Z,91.22
2022-09-06T04:33:32.817Z,91.03
2022-09-06T04:36:01.465Z,91.08
2022-09-06T04:38:30.091Z,90.91
2022-09-06T04:40:57.493Z,91.15
2022-09-06T04:43:24.794Z,91.27
2022-09-06T04:45:52.019Z,91.08
2022-09-06T04:48:19.329Z,91.09
2022-09-06T04:50:46.369Z,90.67
2022-09-06T04:53:13.637Z,90.59
2022-09-06T04:55:40.710Z,89.98
2022-09-06T04:58:07.896Z,89.45
2022-09-06T05:00:36.129Z,88.82
2022-09-06T05:03:03.192Z,88.68
2022-09-06T05:05:30.319Z,88.41
2022-09-06T05:07:57.571Z,88.34
2022-09-06T05:10:25.024Z,87.97
2022-09-06T05:12:54.014Z,87.55
2022-09-06T05:15:22.615Z,88.01
2022-09-06T05:17:49.830Z,87.93
2022-09-06T05:20:17.908Z,87.68
2022-09-06T05:22:53.415Z,87.51
2022-09-06T05:25:20.629Z,87.53
2022-09-06T05:27:47.821Z,87.21
2022-09-06T05:30:15.263Z,86.48
2022-09-06T05:32:42.286Z,85.77
2022-09-06T05:35:09.476Z,85.57
2022-09-06T05:37:36.437Z,85.71
2022-09-06T05:40:03.910Z,85.23
2022-09-06T05:42:30.975Z,85.02
2022-09-06T05:44:57.961Z,84.39
2022-09-06T05:47:25.244Z,83.89
2022-09-06T05:49:52.360Z,83.32
2022-09-06T05:52:20.059Z,83.28
2022-09-06T05:54:47.158Z,82.97
2022-09-06T05:57:14.221Z,82.87
2022-09-06T05:59:41.162Z,82.37
2022-09-06T06:02:08.267Z,81.01
2022-09-06T06:04:35.476Z,80.89
2022-09-06T06:07:02.505Z,80.54
2022-09-06T06:09:29.582Z,79.57
2022-09-06T06:11:56.807Z,79.12
2022-09-06T06:14:23.899Z,79.10
2022-09-06T06:16:51.041Z,78.56
2022-09-06T06:19:18.058Z,77.77
2022-09-06T06:21:45.147Z,77.93
2022-09-06T06:24:12.204Z,78.48
2022-09-06T06:26:39.331Z,76.39
2022-09-06T06:29:09.817Z,75.16
2022-09-06T06:31:39.007Z,72.65
2022-09-06T06:34:09.222Z,68.24
2022-09-06T06:36:38.313Z,68.67
2022-09-06T06:39:08.582Z,68.28
2022-09-06T06:41:36.053Z,66.78
2022-09-06T06:44:05.075Z,63.58
2022-09-06T06:46:36.867Z,61.62
2022-09-06T06:49:04.786Z,59.27
2022-09-06T06:51:37.279Z,58.29
2022-09-06T06:54:05.683Z,56.03
2022-09-06T06:56:37.074Z,55.70
2022-09-06T06:59:05.765Z,54.30
2022-09-06T07:01:35.015Z,52.53
2022-09-06T07:04:02.449Z,53.59
2022-09-06T07:09:18.781Z,51.42
2022-09-06T07:11:46.765Z,49.69
2022-09-06T07:14:13.891Z,50.06
2022-09-06T07:16:40.970Z,49.01
2022-09-06T07:19:08.293Z,48.34
2022-09-06T07:24:06.219Z,48.36
2022-09-06T07:26:35.406Z,47.94
2022-09-06T07:29:04.118Z,47.51
2022-09-06T07:34:20.826Z,42.67
2022-09-06T07:36:48.625Z,40.57
2022-09-06T07:39:15.810Z,42.58
2022-09-06T07:41:43.398Z,42.60
2022-09-06T07:44:10.589Z,44.22
2022-09-06T07:46:43.179Z,42.22
2022-09-06T07:49:10.206Z,40.57
2022-09-06T07:51:37.299Z,40.01
2022-09-06T07:56:52.651Z,40.99
2022-09-06T07:59:19.863Z,39.75
2022-09-06T08:01:47.809Z,39.27
2022-09-06T08:04:15.366Z,40.09
2022-09-06T08:09:35.683Z,41.36
2022-09-06T08:12:07.110Z,39.93
2022-09-06T08:14:35.411Z,40.22
2022-09-06T08:17:03.765Z,40.36
2022-09-06T08:19:30.811Z,39.59
2022-09-06T08:21:57.879Z,39.91
2022-09-06T08:24:25.077Z,37.40
2022-09-06T08:26:52.416Z,37.32
2022-09-06T08:29:22.144Z,36.67
2022-09-06T08:31:49.480Z,36.85
2022-09-06T08:34:16.636Z,38.15
2022-09-06T08:36:44.412Z,34.67
2022-09-06T08:39:12.084Z,34.59
2022-09-06T08:42:05.515Z,34.80
2022-09-06T08:45:00.641Z,36.50
2022-09-06T08:47:28.010Z,35.70
2022-09-06T08:50:13.961Z,33.22
2022-09-06T08:53:16.282Z,33.23
2022-09-06T08:56:04.530Z,34.01
2022-09-06T08:58:34.008Z,32.83
2022-09-06T09:01:12.041Z,32.80
2022-09-06T09:03:41.513Z,33.11
2022-09-06T09:06:10.464Z,33.48
2022-09-06T09:08:40.416Z,34.31
2022-09-06T09:11:11.909Z,33.19
2022-09-06T09:13:47.966Z,35.46
2022-09-06T09:16:15.879Z,34.69
2022-09-06T09:18:50.865Z,34.42
2022-09-06T09:21:25.670Z,34.01
2022-09-06T09:23:59.053Z,33.39
2022-09-06T09:26:31.264Z,32.96
2022-09-06T09:29:05.525Z,32.50
2022-09-06T09:31:41.181Z,33.49
2022-09-06T09:34:13.175Z,33.71
2022-09-06T09:36:40.876Z,33.59
2022-09-06T09:39:11.744Z,33.46
2022-09-06T09:41:43.808Z,33.96
2022-09-06T09:44:17.805Z,34.74
2022-09-06T09:46:45.121Z,34.50
2022-09-06T09:49:27.940Z,33.79
2022-09-06T09:52:07.410Z,35.64
2022-09-06T09:54:39.716Z,34.07
2022-09-06T09:57:11.817Z,34.38
2022-09-06T09:59:49.674Z,34.63
2022-09-06T10:02:30.293Z,34.83
2022-09-06T10:05:10.014Z,35.22
2022-09-06T10:07:44.675Z,34.71
2022-09-06T10:10:22.553Z,35.21
2022-09-06T10:13:06.247Z,35.11
2022-09-06T10:15:38.068Z,33.93
2022-09-06T10:18:05.360Z,33.99
2022-09-06T10:20:50.447Z,33.87
2022-09-06T10:26:51.404Z,35.16
2022-09-06T10:29:26.395Z,34.89
2022-09-06T10:32:17.934Z,36.73
2022-09-06T10:35:13.940Z,35.76
2022-09-06T10:38:16.021Z,33.74
2022-09-06T10:40:54.940Z,34.80
2022-09-06T10:43:22.078Z,35.58
2022-09-06T10:45:57.559Z,35.15
2022-09-06T10:48:30.993Z,33.91
2022-09-06T10:51:06.185Z,35.50
2022-09-06T10:53:44.908Z,36.33
2022-09-06T10:56:18.582Z,34.78
2022-09-06T11:02:12.558Z,33.74
2022-09-06T11:10:34.749Z,35.70
2022-09-06T11:13:04.495Z,35.44
2022-09-06T11:16:07.711Z,34.20
2022-09-06T11:18:56.003Z,33.81
2022-09-06T11:21:47.381Z,33.73
2022-09-06T11:24:40.241Z,35.04
2022-09-06T11:27:12.981Z,35.67
2022-09-06T11:29:52.232Z,36.55
2022-09-06T11:32:37.450Z,36.37
2022-09-06T11:35:11.232Z,37.07
2022-09-06T11:37:45.330Z,37.48
2022-09-06T11:40:27.924Z,36.15
2022-09-06T11:42:55.594Z,35.73
2022-09-06T11:45:47.862Z,35.95
2022-09-06T11:48:44.459Z,35.60
2022-09-06T11:51:12.515Z,36.53
2022-09-06T11:53:48.710Z,36.37
2022-09-06T11:56:38.131Z,34.99
2022-09-06T11:59:13.752Z,36.36
2022-09-06T12:01:41.177Z,35.77
2022-09-06T12:04:10.148Z,35.66
2022-09-06T12:07:11.217Z,35.82
2022-09-06T12:09:41.340Z,35.21
2022-09-06T12:12:12.423Z,34.60
2022-09-06T12:14:48.338Z,36.17
2022-09-06T12:17:15.306Z,36.04
2022-09-06T12:19:53.097Z,36.26
2022-09-06T12:22:33.002Z,36.74
2022-09-06T12:25:05.772Z,36.90
2022-09-06T12:27:39.733Z,36.48
2022-09-06T12:30:13.211Z,36.35
2022-09-06T12:32:52.124Z,34.49
2022-09-06T12:38:17.402Z,34.96
2022-09-06T12:40:48.247Z,34.87
2022-09-06T12:43:17.305Z,34.73
2022-09-06T12:45:50.872Z,34.94
2022-09-06T12:48:30.668Z,33.98
2022-09-06T12:51:06.876Z,34.87
2022-09-06T12:53:35.142Z,34.85
2022-09-06T12:56:07.366Z,35.17
2022-09-06T12:58:35.274Z,34.93
2022-09-06T13:01:15.291Z,35.00
2022-09-06T13:04:26.916Z,34.87
2022-09-06T13:06:55.461Z,35.62
2022-09-06T13:09:27.218Z,35.92
2022-09-06T13:12:00.934Z,38.22
2022-09-06T13:14:31.456Z,37.12
2022-09-06T13:16:58.703Z,36.54
2022-09-06T13:19:39.943Z,35.91
2022-09-06T13:22:11.274Z,36.02
2022-09-06T13:24:40.677Z,36.47
2022-09-06T13:27:25.012Z,36.14
2022-09-06T13:29:56.886Z,36.50
2022-09-06T13:32:23.966Z,37.16
2022-09-06T13:34:58.510Z,36.98
2022-09-06T13:37:31.875Z,36.77
2022-09-06T13:39:59.984Z,36.98
2022-09-06T13:42:33.278Z,36.38
2022-09-06T13:45:30.297Z,36.01
2022-09-06T13:48:13.218Z,35.93
2022-09-06T13:50:44.850Z,35.73
2022-09-06T13:53:11.951Z,35.63
2022-09-06T13:55:39.119Z,35.40
2022-09-06T13:58:06.281Z,35.65
2022-09-06T14:00:33.409Z,35.78
2022-09-06T14:03:01.013Z,35.45
2022-09-06T14:05:27.998Z,35.14
2022-09-06T14:07:55.208Z,35.48
2022-09-06T14:10:24.092Z,35.73
2022-09-06T14:12:53.548Z,35.92
2022-09-06T14:15:20.991Z,36.37
2022-09-06T14:17:48.061Z,36.13
2022-09-06T14:20:15.138Z,36.35
2022-09-06T14:22:42.231Z,36.29
2022-09-06T14:25:10.265Z,36.56
2022-09-06T14:27:37.287Z,36.59
2022-09-06T14:30:05.076Z,36.62
2022-09-06T14:32:32.062Z,37.63
2022-09-06T14:35:00.474Z,37.56
2022-09-06T14:37:27.363Z,37.21
2022-09-06T14:40:25.999Z,37.53
2022-09-06T14:42:53.102Z,37.73
2022-09-06T14:45:20.412Z,37.40
2022-09-06T14:47:47.591Z,38.94
2022-09-06T14:50:14.664Z,38.33
2022-09-06T14:52:41.653Z,38.28
2022-09-06T14:55:09.168Z,38.69
2022-09-06T14:57:36.225Z,38.80
2022-09-06T15:00:08.788Z,38.74
2022-09-06T15:02:36.172Z,38.41
2022-09-06T15:05:03.714Z,38.80
2022-09-06T15:07:31.972Z,38.82
2022-09-06T15:09:59.309Z,39.08
2022-09-06T15:12:26.413Z,38.57
2022-09-06T15:14:53.686Z,38.91
2022-09-06T15:17:20.696Z,39.23
2022-09-06T15:19:47.916Z,39.49
2022-09-06T15:22:15.015Z,39.85
2022-09-06T15:24:42.027Z,39.55
2022-09-06T15:27:09.046Z,39.80
2022-09-06T15:29:36.035Z,39.83
2022-09-06T15:32:03.236Z,40.21
2022-09-06T15:34:30.321Z,40.12
2022-09-06T15:36:57.315Z,40.21
2022-09-06T15:39:24.413Z,40.24
2022-09-06T15:41:51.984Z,40.62
2022-09-06T15:44:21.718Z,40.97
2022-09-06T15:46:54.804Z,41.40
2022-09-06T15:49:28.041Z,40.96
2022-09-06T15:51:57.264Z,41.44
2022-09-06T15:54:44.703Z,41.70
2022-09-06T15:57:12.554Z,41.45
2022-09-06T15:59:41.114Z,41.94
2022-09-06T16:02:08.810Z,41.92
2022-09-06T16:04:35.960Z,41.96
2022-09-06T16:07:03.689Z,41.57
2022-09-06T16:09:31.091Z,41.83
2022-09-06T16:11:58.066Z,42.14
2022-09-06T16:14:25.438Z,42.16
2022-09-06T16:16:54.726Z,42.41
2022-09-06T16:19:22.079Z,42.63
2022-09-06T16:21:49.333Z,42.99
2022-09-06T16:24:18.343Z,43.18
2022-09-06T16:26:49.169Z,43.53
2022-09-06T16:29:18.364Z,44.31
2022-09-06T16:31:46.109Z,44.73
2022-09-06T16:34:13.830Z,44.93
2022-09-06T16:36:41.370Z,45.27
2022-09-06T16:39:09.647Z,45.31
2022-09-06T16:41:46.317Z,45.99
2022-09-06T16:44:17.461Z,46.02
2022-09-06T16:46:49.574Z,46.25
2022-09-06T16:49:17.745Z,46.47
2022-09-06T16:51:45.541Z,46.61
2022-09-06T16:54:12.716Z,47.20
2022-09-06T16:56:40.225Z,47.46
2022-09-06T16:59:08.774Z,47.59
2022-09-06T17:01:37.971Z,47.96
2022-09-06T17:04:05.917Z,48.44
2022-09-06T17:06:48.340Z,48.86
2022-09-06T17:09:19.222Z,49.56
2022-09-06T17:11:50.199Z,50.18
2022-09-06T17:14:18.351Z,50.13
2022-09-06T17:17:04.081Z,52.03
2022-09-06T17:19:39.609Z,54.69
2022-09-06T17:22:13.089Z,54.38
2022-09-06T17:24:41.650Z,55.46
2022-09-06T17:27:09.960Z,56.16
2022-09-06T17:29:37.301Z,57.25
2022-09-06T17:32:10.131Z,57.75
2022-09-06T17:34:38.992Z,58.71
2022-09-06T17:37:06.575Z,59.37
2022-09-06T17:39:36.086Z,59.79
2022-09-06T17:42:03.634Z,60.71
2022-09-06T17:44:30.618Z,61.11
2022-09-06T17:47:14.196Z,62.05
2022-09-06T17:49:42.662Z,63.27
2022-09-06T17:52:10.434Z,64.05
2022-09-06T17:54:37.511Z,64.05
2022-09-06T17:57:04.659Z,63.72
2022-09-06T17:59:35.384Z,64.19
2022-09-06T18:02:03.038Z,64.74
2022-09-06T18:04:30.193Z,65.59
2022-09-06T18:06:57.195Z,65.87
2022-09-06T18:09:24.186Z,67.12
2022-09-06T18:11:51.210Z,66.98
2022-09-06T18:14:20.980Z,67.14
2022-09-06T18:16:49.633Z,66.39
2022-09-06T18:19:17.929Z,66.71
2022-09-06T18:21:45.735Z,67.02
2022-09-06T18:24:16.305Z,67.58
2022-09-06T18:26:43.851Z,67.56
2022-09-06T18:29:16.803Z,67.55
2022-09-06T18:31:44.618Z,67.84
2022-09-06T18:34:12.294Z,68.41
2022-09-06T18:36:39.650Z,68.29
2022-09-06T18:39:07.094Z,68.47
2022-09-06T18:41:53.108Z,68.24
2022-09-06T18:44:20.187Z,68.24
2022-09-06T18:46:47.272Z,68.23
2022-09-06T18:49:15.646Z,68.70
2022-09-06T18:51:43.552Z,69.67
2022-09-06T18:54:11.165Z,69.61
2022-09-06T18:56:38.705Z,69.64
2022-09-06T18:59:06.244Z,69.65
2022-09-06T19:01:35.232Z,70.40
2022-09-06T19:04:03.801Z,70.20
2022-09-06T19:06:32.698Z,70.15
2022-09-06T19:09:01.973Z,70.21
2022-09-06T19:11:29.527Z,70.11
2022-09-06T19:13:58.046Z,70.50
2022-09-06T19:16:27.427Z,70.68
2022-09-06T19:18:56.251Z,70.29
2022-09-06T19:21:25.689Z,70.19
2022-09-06T19:24:05.021Z,70.93
2022-09-06T19:26:38.080Z,70.86
2022-09-06T19:29:09.149Z,71.23
2022-09-06T19:31:38.338Z,71.99
2022-09-06T19:34:06.055Z,72.61
2022-09-06T19:36:33.125Z,73.15
2022-09-06T19:39:03.904Z,73.82
2022-09-06T19:41:34.295Z,74.80
2022-09-06T19:44:01.825Z,75.26
2022-09-06T19:46:29.107Z,75.18
2022-09-06T19:48:56.510Z,75.65
2022-09-06T19:51:24.722Z,75.66
2022-09-06T19:54:00.141Z,76.52
2022-09-06T19:56:33.948Z,76.65
2022-09-06T19:59:04.077Z,76.57
2022-09-06T20:01:33.024Z,76.86
2022-09-06T20:04:02.927Z,76.49
2022-09-06T20:06:30.962Z,76.37
2022-09-06T20:08:59.645Z,77.10
2022-09-06T20:11:29.678Z,77.62
2022-09-06T20:13:57.118Z,77.77
2022-09-06T20:16:25.110Z,78.08
2022-09-06T20:18:54.723Z,78.20
2022-09-06T20:21:21.946Z,78.59
2022-09-06T20:23:54.401Z,79.54
2022-09-06T20:26:24.033Z,79.24
2022-09-06T20:28:59.171Z,79.77
2022-09-06T20:31:28.241Z,79.73
2022-09-06T20:33:56.085Z,80.99
2022-09-06T20:36:23.391Z,81.43
2022-09-06T20:38:51.198Z,81.83
2022-09-06T20:41:23.834Z,82.40
2022-09-06T20:43:52.801Z,82.02
2022-09-06T20:46:22.150Z,82.12
2022-09-06T20:48:49.670Z,81.73
2022-09-06T20:51:22.131Z,82.08
2022-09-06T20:53:53.446Z,82.47
2022-09-06T20:56:23.278Z,82.64
2022-09-06T20:58:53.009Z,82.38
2022-09-06T21:01:25.496Z,82.25
2022-09-06T21:03:54.647Z,82.50
2022-09-06T21:06:22.719Z,82.33
2022-09-06T21:08:50.555Z,82.62
2022-09-06T21:11:18.483Z,82.14
2022-09-06T21:13:51.304Z,82.42
2022-09-06T21:16:23.947Z,83.11
2022-09-06T21:18:56.270Z,83.10
2022-09-06T21:21:23.944Z,82.93
2022-09-06T21:23:51.302Z,82.92
2022-09-06T21:26:18.610Z,83.30
2022-09-06T21:28:47.309Z,83.61
2022-09-06T21:31:36.409Z,84.03
2022-09-06T21:34:06.910Z,83.30
2022-09-06T21:36:38.855Z,81.91
2022-09-06T21:39:12.444Z,81.23
2022-09-06T21:41:41.635Z,80.51
2022-09-06T21:44:09.486Z,80.96
2022-09-06T21:46:38.422Z,81.93
2022-09-06T21:49:08.011Z,82.51
2022-09-06T21:51:35.383Z,82.33
2022-09-06T21:54:06.075Z,82.47
2022-09-06T21:56:36.072Z,82.27
2022-09-06T21:59:04.891Z,82.85
2022-09-06T22:01:35.036Z,82.80
2022-09-06T22:04:02.687Z,82.58
2022-09-06T22:06:31.262Z,82.81
2022-09-06T22:09:01.317Z,83.10
2022-09-06T22:11:31.980Z,82.85
2022-09-06T22:14:01.174Z,82.61
2022-09-06T22:16:28.970Z,82.86
2022-09-06T22:18:56.211Z,83.16
2022-09-06T22:21:23.781Z,83.10
2022-09-06T22:24:03.815Z,83.30
2022-09-06T22:26:33.253Z,82.97
2022-09-06T22:29:02.903Z,83.27
2022-09-06T22:31:31.646Z,82.42
2022-09-06T22:33:59.111Z,82.42
2022-09-06T22:36:26.582Z,81.05
2022-09-06T22:38:57.830Z,81.64
2022-09-06T22:41:31.554Z,81.50
2022-09-06T22:44:02.459Z,80.85
2022-09-06T22:46:30.009Z,81.02
2022-09-06T22:48:57.382Z,81.17
2022-09-06T22:51:24.793Z,80.61
2022-09-06T22:53:51.871Z,81.20
2022-09-06T22:56:19.224Z,80.98
2022-09-06T22:58:46.312Z,80.70
2022-09-06T23:01:16.127Z,80.69
2022-09-06T23:03:44.055Z,80.55
2022-09-06T23:06:11.334Z,80.83
2022-09-06T23:08:40.235Z,81.53
2022-09-06T23:11:10.370Z,81.33
2022-09-06T23:13:38.099Z,81.42
2022-09-06T23:16:09.670Z,81.63
2022-09-06T23:18:36.961Z,82.12
2022-09-06T23:21:15.945Z,82.12
2022-09-06T23:23:43.184Z,82.29
2022-09-06T23:26:11.876Z,81.91
2022-09-06T23:28:39.327Z,82.64
2022-09-06T23:31:08.547Z,83.01
2022-09-06T23:33:38.716Z,83.05
2022-09-06T23:36:10.284Z,82.87
2022-09-06T23:38:39.045Z,83.05
2022-09-06T23:41:07.134Z,82.65
2022-09-06T23:43:34.388Z,83.37
2022-09-06T23:46:01.431Z,83.22
2022-09-06T23:48:28.861Z,83.42
2022-09-06T23:50:56.178Z,83.44
2022-09-06T23:53:23.805Z,83.66
2022-09-06T23:55:50.847Z,84.13
2022-09-06T23:58:18.006Z,83.61
